Aviation Digital Data Service (ADDS)

Output produced by METARs form (1358 UTC 25 June 2019)
found at http://www.aviationweather.gov/metar/data/
 
Forecast for: LFPG (CHARLES DE GAULL, FR)
Text: TAF LFPG 251100Z 2512/2618 22010KT CAVOK TX33/2615Z TN20/2604Z
Forecast period: 1200 to 2100 UTC 25 June 2019
Forecast type: FROM: standard forecast or significant change
Winds: from the SW (220 degrees) at 12 MPH (10 knots; 5.1 m/s)
Visibility: 6 or more miles 10+ km)
Ceiling: unknown
Clouds: missing
Weather: no significant weather forecast for this period
Text: BECMG 2521/2523 02010KT
Forecast period: 2100 UTC 25 June 2019 to 1800 UTC 26 June 2019
Forecast type: BECOMING: Conditions expected to become as follows by 2300 UTC 25 June 2019
Winds: from the NNE (20 degrees) at 12 MPH (10 knots; 5.1 m/s)
Visibility: 6 or more miles 10+ km)
Ceiling: unknown
Clouds: missing
Weather: no significant weather forecast for this period
Text: TEMPO 2614/2618 04015G25KT
Forecast period: 1400 to 1800 UTC 26 June 2019
Forecast type: TEMPORARY: The following changes expected for less than half the time period
Winds: from the NE (40 degrees) at 17 MPH (15 knots; 7.7 m/s)
gusting to 29 MPH (25 knots; 12.9 m/s)
Visibility: missing
Ceiling: unknown
Clouds: missing
Weather: no significant weather forecast for this period